Time;durP1;ratioP1;P1;durP2;ratioP2;P2;SDS_P1;SDS_P2;PMS_P1;PMS_P2;Temp;Humidity;BMP_temperature;BMP_pressure;BME280_temperature;BME280_humidity;BME280_pressure;Samples;Min_cycle;Max_cycle;Signal;HPM_P1;HPM_P2
2022/01/23 00:02:20;;;;;;;0.00;0.00;;;;;31.00;99945.00;;;;5069459;28;20071;-76
2022/01/23 00:04:50;;;;;;;0.00;0.00;;;;;30.80;99963.00;;;;5070077;28;20567;-77
2022/01/23 00:07:20;;;;;;;0.00;0.00;;;;;30.60;99976.00;;;;5068927;28;20403;-78
2022/01/23 00:09:50;;;;;;;0.00;0.00;;;;;30.60;99993.00;;;;5069827;28;20041;-77
2022/01/23 00:12:24;;;;;;;0.00;0.00;;;;;30.70;99983.00;;;;5069409;28;20044;-78
2022/01/23 00:17:41;;;;;;;0.00;0.00;;;;;30.60;99999.00;;;;5069972;28;20544;-76
2022/01/23 00:20:13;;;;;;;0.20;0.20;;;;;30.70;100007.00;;;;5068883;28;20873;-78
2022/01/23 00:22:49;;;;;;;0.00;0.00;;;;;30.70;100008.00;;;;5069237;28;20128;-77
2022/01/23 00:31:00;;;;;;;0.00;0.00;;;;;30.80;99998.00;;;;5098420;28;20041;-75
2022/01/23 00:33:31;;;;;;;0.00;0.00;;;;;30.70;99992.00;;;;5096325;28;20139;-78
2022/01/23 00:36:03;;;;;;;0.00;0.00;;;;;30.70;100011.00;;;;5097810;28;20085;-75
2022/01/23 00:38:33;;;;;;;0.00;0.00;;;;;30.80;99991.00;;;;5099078;27;20086;-76
2022/01/23 00:41:03;;;;;;;0.00;0.00;;;;;30.80;99993.00;;;;5097642;28;20502;-75
2022/01/23 00:43:35;;;;;;;0.00;0.00;;;;;30.80;99978.00;;;;5098822;28;20051;-77
2022/01/23 00:46:23;;;;;;;0.00;0.00;;;;;30.60;99985.00;;;;5094887;28;20039;-77
2022/01/23 00:51:35;;;;;;;0.00;0.00;;;;;30.50;99985.00;;;;5096067;28;20067;-77
2022/01/23 00:54:10;;;;;;;0.00;0.00;;;;;30.40;99989.00;;;;5092677;28;20131;-77
2022/01/23 00:56:41;;;;;;;0.00;0.00;;;;;30.20;99986.00;;;;5097283;28;20445;-77
2022/01/23 00:59:10;;;;;;;0.00;0.00;;;;;30.10;100005.00;;;;5098785;28;20046;-76
2022/01/23 01:01:40;;;;;;;0.00;0.00;;;;;30.10;100004.00;;;;5098020;28;21138;-77
2022/01/23 01:04:09;;;;;;;0.00;0.00;;;;;29.90;100009.00;;;;5098639;28;20055;-78
2022/01/23 01:06:38;;;;;;;0.00;0.00;;;;;30.00;100000.00;;;;5103671;28;20526;-76
2022/01/23 01:09:09;;;;;;;0.00;0.00;;;;;30.00;100011.00;;;;5108177;28;20047;-76
2022/01/23 01:17:04;;;;;;;0.00;0.00;;;;;29.30;100023.00;;;;5094767;28;20048;-76
2022/01/23 01:31:20;;;;;;;0.00;0.00;;;;;29.50;100041.00;;;;5106271;28;20051;-78
2022/01/23 01:33:59;;;;;;;0.00;0.00;;;;;29.40;100052.00;;;;5090245;28;20036;-76
2022/01/23 01:36:45;;;;;;;0.00;0.00;;;;;29.60;100044.00;;;;5093106;28;20051;-76
2022/01/23 01:39:19;;;;;;;0.00;0.00;;;;;29.60;100038.00;;;;5095221;28;20049;-76
2022/01/23 01:41:50;;;;;;;0.00;0.00;;;;;29.50;100041.00;;;;5093513;28;20537;-76
2022/01/23 01:44:24;;;;;;;0.00;0.00;;;;;29.50;100039.00;;;;5095186;28;20063;-78
2022/01/23 01:47:02;;;;;;;0.00;0.00;;;;;29.50;100044.00;;;;5092815;28;20048;-75
2022/01/23 01:49:36;;;;;;;0.00;0.00;;;;;29.60;100049.00;;;;5091401;28;20507;-77
2022/01/23 01:52:08;;;;;;;0.00;0.00;;;;;29.80;100037.00;;;;5095474;28;20051;-78
2022/01/23 01:54:39;;;;;;;0.00;0.00;;;;;29.90;100035.00;;;;5092721;28;20695;-76
2022/01/23 01:57:16;;;;;;;0.00;0.00;;;;;29.80;100035.00;;;;5088922;28;20487;-76
2022/01/23 02:08:40;;;;;;;0.10;0.10;;;;;29.00;100039.00;;;;5058938;28;20803;-76
2022/01/23 02:11:15;;;;;;;0.00;0.00;;;;;29.00;100036.00;;;;5086002;28;20063;-77
2022/01/23 02:55:26;;;;;;;0.00;0.00;;;;;26.80;100042.00;;;;5085828;28;20101;-74
2022/01/23 02:58:05;;;;;;;0.00;0.00;;;;;26.80;100047.00;;;;5084548;28;20071;-77
2022/01/23 03:00:47;;;;;;;0.43;0.30;;;;;26.90;100048.00;;;;5087924;28;20581;-75
2022/01/23 03:03:47;;;;;;;0.00;0.00;;;;;26.80;100056.00;;;;5069954;28;20519;-75
2022/01/23 03:12:06;;;;;;;0.00;0.00;;;;;26.60;100044.00;;;;5087099;28;20032;-76
2022/01/23 03:28:50;;;;;;;0.00;0.00;;;;;26.80;100046.00;;;;5086433;28;20637;-76
2022/01/23 03:33:49;;;;;;;0.03;0.03;;;;;26.80;100036.00;;;;5086711;28;20153;-77
2022/01/23 03:36:19;;;;;;;0.00;0.00;;;;;26.70;100044.00;;;;5086359;28;20400;-78
2022/01/23 03:38:49;;;;;;;0.00;0.00;;;;;26.80;100046.00;;;;5086245;28;20044;-77
2022/01/23 03:41:19;;;;;;;0.13;0.13;;;;;26.80;100037.00;;;;5086720;28;20529;-78
2022/01/23 03:43:49;;;;;;;0.00;0.00;;;;;27.00;100035.00;;;;5085300;28;20514;-78
2022/01/23 03:49:33;;;;;;;0.20;0.20;;;;;27.00;100029.00;;;;5024737;28;20052;-78
2022/01/23 03:52:11;;;;;;;0.00;0.00;;;;;27.00;100017.00;;;;5008673;28;20057;-77
2022/01/23 03:54:43;;;;;;;0.00;0.00;;;;;27.00;100017.00;;;;5046997;28;20101;-76
2022/01/23 03:57:13;;;;;;;0.00;0.00;;;;;27.00;100030.00;;;;5085262;28;20044;-78
2022/01/23 03:59:42;;;;;;;0.00;0.00;;;;;27.10;100017.00;;;;5086238;28;20048;-78
2022/01/23 04:02:14;;;;;;;0.90;0.40;;;;;27.10;100026.00;;;;5085727;28;20089;-75
2022/01/23 04:04:44;;;;;;;0.00;0.00;;;;;27.00;100025.00;;;;5084940;28;20044;-75
2022/01/23 04:07:23;;;;;;;0.00;0.00;;;;;27.00;100023.00;;;;5084540;28;20067;-76
2022/01/23 04:09:53;;;;;;;0.00;0.00;;;;;27.00;100017.00;;;;5086393;28;20487;-76
2022/01/23 04:12:43;;;;;;;0.00;0.00;;;;;27.00;100016.00;;;;5088704;28;20044;-75
2022/01/23 04:15:38;;;;;;;0.00;0.00;;;;;27.00;100026.00;;;;5088927;28;20051;-76
2022/01/23 04:35:19;;;;;;;0.00;0.00;;;;;26.60;100010.00;;;;5087943;28;20169;-76
2022/01/23 04:46:20;;;;;;;0.00;0.00;;;;;26.30;100014.00;;;;5089535;28;20138;-75
2022/01/23 04:59:50;;;;;;;0.00;0.00;;;;;25.80;99967.00;;;;5087653;28;20097;-75
2022/01/23 05:05:07;;;;;;;0.00;0.00;;;;;25.60;99968.00;;;;5088844;28;20090;-75
2022/01/23 05:08:04;;;;;;;0.00;0.00;;;;;25.60;99976.00;;;;5087706;28;20063;-75
2022/01/23 05:11:02;;;;;;;0.00;0.00;;;;;25.50;99986.00;;;;5087806;28;20055;-75
2022/01/23 05:13:50;;;;;;;0.00;0.00;;;;;25.50;99970.00;;;;5088548;28;20058;-75
2022/01/23 05:16:21;;;;;;;0.00;0.00;;;;;25.50;99965.00;;;;5087577;28;20080;-76
2022/01/23 05:18:50;;;;;;;0.00;0.00;;;;;25.40;99961.00;;;;5088319;28;20502;-75
2022/01/23 05:21:49;;;;;;;0.00;0.00;;;;;25.40;99958.00;;;;5087867;28;20044;-75
2022/01/23 05:24:12;;;;;;;0.00;0.00;;;;;25.40;99964.00;;;;5087164;28;20484;-76
2022/01/23 05:26:44;;;;;;;0.00;0.00;;;;;25.30;99977.00;;;;5087157;28;20568;-76
2022/01/23 05:29:14;;;;;;;0.00;0.00;;;;;25.30;99968.00;;;;5088994;28;20074;-76
2022/01/23 05:31:44;;;;;;;0.00;0.00;;;;;25.30;99957.00;;;;5088579;28;20438;-76
2022/01/23 05:34:13;;;;;;;0.00;0.00;;;;;25.30;99962.00;;;;5088733;28;20048;-77
2022/01/23 05:36:43;;;;;;;0.00;0.00;;;;;25.20;99962.00;;;;5088282;28;20052;-76
2022/01/23 05:39:14;;;;;;;0.00;0.00;;;;;25.10;99955.00;;;;5088651;28;20395;-75
2022/01/23 05:41:44;;;;;;;0.00;0.00;;;;;25.10;99959.00;;;;5086481;28;20146;-75
2022/01/23 05:44:14;;;;;;;0.00;0.00;;;;;25.10;99968.00;;;;5086923;28;20044;-76
2022/01/23 05:46:44;;;;;;;0.00;0.00;;;;;25.00;99950.00;;;;5087466;28;20050;-76
2022/01/23 05:49:19;;;;;;;0.00;0.00;;;;;25.00;99951.00;;;;5087137;28;20050;-75
2022/01/23 05:51:59;;;;;;;0.00;0.00;;;;;25.00;99961.00;;;;5086971;28;20055;-76
2022/01/23 05:54:47;;;;;;;0.00;0.00;;;;;25.00;99931.00;;;;5088095;28;20086;-77
2022/01/23 05:57:37;;;;;;;0.00;0.00;;;;;25.00;99936.00;;;;5079808;28;20060;-76
2022/01/23 06:00:33;;;;;;;0.00;0.00;;;;;24.90;99939.00;;;;5086309;28;20133;-75
2022/01/23 06:03:07;;;;;;;0.00;0.00;;;;;24.90;99934.00;;;;5086507;28;20979;-77
2022/01/23 06:05:45;;;;;;;0.00;0.00;;;;;24.90;99929.00;;;;5087173;28;20040;-76
2022/01/23 06:08:23;;;;;;;0.00;0.00;;;;;24.90;99922.00;;;;5086383;28;20086;-75
2022/01/23 06:10:54;;;;;;;0.00;0.00;;;;;24.80;99922.00;;;;5086104;28;20044;-76
2022/01/23 06:13:37;;;;;;;0.00;0.00;;;;;24.90;99930.00;;;;5086617;28;20048;-76
2022/01/23 06:16:08;;;;;;;0.00;0.00;;;;;24.90;99929.00;;;;5086378;28;20052;-75
2022/01/23 06:18:41;;;;;;;0.00;0.00;;;;;24.80;99923.00;;;;5086008;28;20055;-76
2022/01/23 06:21:29;;;;;;;0.00;0.00;;;;;24.80;99929.00;;;;5087329;28;20054;-75
2022/01/23 06:24:45;;;;;;;0.00;0.00;;;;;24.80;99903.00;;;;5024529;28;20677;-75
2022/01/23 06:27:37;;;;;;;0.00;0.00;;;;;24.80;99916.00;;;;5005602;28;20060;-75
2022/01/23 06:30:08;;;;;;;0.00;0.00;;;;;24.70;99909.00;;;;5069959;28;20051;-75
2022/01/23 06:32:38;;;;;;;0.00;0.00;;;;;24.70;99910.00;;;;5087299;28;20079;-76
2022/01/23 06:35:10;;;;;;;0.00;0.00;;;;;24.70;99914.00;;;;5069686;28;20320;-75
2022/01/23 06:37:40;;;;;;;0.00;0.00;;;;;24.70;99907.00;;;;5085962;28;20515;-75
2022/01/23 06:40:10;;;;;;;0.00;0.00;;;;;24.70;99905.00;;;;5086214;28;20070;-75
2022/01/23 06:42:57;;;;;;;0.00;0.00;;;;;24.70;99919.00;;;;5086635;28;20121;-75
2022/01/23 06:45:41;;;;;;;0.00;0.00;;;;;24.70;99922.00;;;;5085784;28;20063;-75
2022/01/23 06:48:12;;;;;;;0.00;0.00;;;;;24.60;99912.00;;;;5085574;28;20473;-75
2022/01/23 06:50:41;;;;;;;0.00;0.00;;;;;24.60;99907.00;;;;5085601;28;20080;-75
2022/01/23 06:53:11;;;;;;;0.00;0.00;;;;;24.60;99909.00;;;;5085556;28;20054;-75
2022/01/23 06:55:40;;;;;;;0.00;0.00;;;;;24.50;99905.00;;;;5085578;28;20048;-76
2022/01/23 06:58:10;;;;;;;0.00;0.00;;;;;24.50;99906.00;;;;5085424;28;20099;-76
2022/01/23 07:00:39;;;;;;;0.00;0.00;;;;;24.50;99912.00;;;;5085352;28;20044;-75
2022/01/23 07:03:28;;;;;;;0.00;0.00;;;;;24.50;99908.00;;;;5085411;28;20051;-75
2022/01/23 07:06:16;;;;;;;0.00;0.00;;;;;24.50;99911.00;;;;5087081;28;20545;-75
2022/01/23 07:09:25;;;;;;;0.00;0.00;;;;;24.40;99909.00;;;;5087223;28;20073;-76
2022/01/23 07:12:17;;;;;;;0.00;0.00;;;;;24.40;99903.00;;;;5066604;28;20087;-75
2022/01/23 07:14:56;;;;;;;0.00;0.00;;;;;24.40;99900.00;;;;5086826;28;20052;-76
2022/01/23 07:17:43;;;;;;;0.00;0.00;;;;;24.40;99919.00;;;;5084868;28;20044;-76
2022/01/23 07:20:25;;;;;;;0.00;0.00;;;;;24.40;99915.00;;;;5085338;28;20051;-76
2022/01/23 07:22:59;;;;;;;0.00;0.00;;;;;24.50;99932.00;;;;5085138;28;20082;-75
2022/01/23 07:25:30;;;;;;;0.00;0.00;;;;;24.50;99931.00;;;;5084894;28;20036;-76
2022/01/23 07:28:01;;;;;;;0.00;0.00;;;;;24.40;99920.00;;;;5084787;28;20052;-75
2022/01/23 07:30:38;;;;;;;0.00;0.00;;;;;24.40;99944.00;;;;5087159;28;20055;-75
2022/01/23 07:33:08;;;;;;;0.00;0.00;;;;;24.50;99924.00;;;;5085492;28;20457;-75
2022/01/23 07:35:38;;;;;;;0.00;0.00;;;;;24.50;99921.00;;;;5085176;28;20040;-75
2022/01/23 07:38:09;;;;;;;0.10;0.10;;;;;24.50;99916.00;;;;5086368;28;20507;-76
2022/01/23 07:41:11;;;;;;;0.00;0.00;;;;;24.50;99923.00;;;;5062332;28;20565;-76
2022/01/23 07:44:01;;;;;;;1.00;0.90;;;;;24.50;99918.00;;;;5054873;28;20063;-75
2022/01/23 07:46:51;;;;;;;0.13;0.10;;;;;24.50;99929.00;;;;5088940;28;20078;-75
2022/01/23 07:49:37;;;;;;;0.17;0.17;;;;;24.50;99921.00;;;;5088362;28;20048;-76
2022/01/23 07:52:21;;;;;;;0.00;0.00;;;;;24.50;99936.00;;;;5087360;28;20094;-75
2022/01/23 07:55:16;;;;;;;0.00;0.00;;;;;24.50;99951.00;;;;5084755;28;20051;-75
2022/01/23 07:58:15;;;;;;;0.00;0.00;;;;;24.50;99948.00;;;;5085127;28;20059;-75
2022/01/23 08:01:14;;;;;;;0.00;0.00;;;;;24.40;99948.00;;;;5086733;28;20048;-75
2022/01/23 08:04:08;;;;;;;0.00;0.00;;;;;24.50;99959.00;;;;5089726;28;20052;-76
2022/01/23 08:06:45;;;;;;;0.00;0.00;;;;;24.50;99950.00;;;;5088814;28;20047;-76
2022/01/23 08:09:34;;;;;;;0.00;0.00;;;;;24.50;99964.00;;;;5089799;28;20431;-75
2022/01/23 08:12:09;;;;;;;0.00;0.00;;;;;24.60;99960.00;;;;5088928;28;20436;-75
2022/01/23 08:14:39;;;;;;;0.00;0.00;;;;;24.60;99964.00;;;;5090099;28;20117;-76
2022/01/23 08:17:08;;;;;;;0.00;0.00;;;;;24.50;99963.00;;;;5090008;28;20040;-76
2022/01/23 08:19:38;;;;;;;0.00;0.00;;;;;24.50;99964.00;;;;5088603;28;20058;-75
2022/01/23 08:22:07;;;;;;;0.00;0.00;;;;;24.50;99975.00;;;;5089775;28;20048;-75
2022/01/23 08:24:36;;;;;;;0.00;0.00;;;;;24.60;99976.00;;;;5090406;28;20040;-76
2022/01/23 08:27:06;;;;;;;0.00;0.00;;;;;24.60;99961.00;;;;5089774;28;20449;-75
2022/01/23 08:29:36;;;;;;;0.00;0.00;;;;;24.50;99970.00;;;;5089308;28;20039;-75
2022/01/23 08:32:06;;;;;;;0.00;0.00;;;;;24.60;99967.00;;;;5089640;28;20040;-75
2022/01/23 08:34:36;;;;;;;0.00;0.00;;;;;24.50;99973.00;;;;5089080;28;20052;-76
2022/01/23 08:37:08;;;;;;;0.00;0.00;;;;;24.40;99974.00;;;;5089532;28;20048;-75
2022/01/23 08:39:39;;;;;;;0.00;0.00;;;;;24.40;99989.00;;;;5089675;28;20114;-75
2022/01/23 08:42:12;;;;;;;0.00;0.00;;;;;24.40;99969.00;;;;5089407;28;20044;-76
2022/01/23 08:44:43;;;;;;;0.00;0.00;;;;;24.30;99979.00;;;;5089193;28;20052;-76
2022/01/23 08:47:12;;;;;;;0.00;0.00;;;;;24.30;99995.00;;;;5089261;28;20052;-75
2022/01/23 08:49:47;;;;;;;0.00;0.00;;;;;24.20;99991.00;;;;5089356;28;20040;-75
2022/01/23 08:52:20;;;;;;;0.00;0.00;;;;;24.20;100005.00;;;;5089960;28;20066;-75
2022/01/23 08:54:51;;;;;;;0.00;0.00;;;;;24.20;99992.00;;;;5088917;28;20068;-75
2022/01/23 08:57:21;;;;;;;0.00;0.00;;;;;24.20;99991.00;;;;5088241;28;20396;-75
2022/01/23 08:59:51;;;;;;;0.00;0.00;;;;;24.30;99991.00;;;;5089295;28;20748;-75
2022/01/23 09:02:21;;;;;;;0.00;0.00;;;;;24.30;99996.00;;;;5089315;28;20055;-75
2022/01/23 09:04:51;;;;;;;0.00;0.00;;;;;24.20;100006.00;;;;5089445;28;20127;-75
2022/01/23 09:07:20;;;;;;;0.00;0.00;;;;;24.30;100007.00;;;;5087534;28;20051;-75
2022/01/23 09:09:49;;;;;;;0.00;0.00;;;;;24.30;100013.00;;;;5088508;28;20047;-75
2022/01/23 09:15:21;;;;;;;0.00;0.00;;;;;24.50;100009.00;;;;5055186;28;20059;-75
2022/01/23 09:17:50;;;;;;;0.00;0.00;;;;;24.50;100013.00;;;;5089355;28;20047;-75
2022/01/23 09:20:19;;;;;;;0.00;0.00;;;;;24.60;100010.00;;;;5088089;28;20052;-75
2022/01/23 09:22:49;;;;;;;0.00;0.00;;;;;24.60;100015.00;;;;5088420;28;20503;-75
2022/01/23 09:25:19;;;;;;;0.00;0.00;;;;;24.70;100012.00;;;;5088546;28;20040;-75
2022/01/23 09:27:49;;;;;;;0.00;0.00;;;;;24.70;100009.00;;;;5088463;28;20052;-75
2022/01/23 09:30:22;;;;;;;0.00;0.00;;;;;24.80;100004.00;;;;5088528;28;20047;-75
2022/01/23 09:32:52;;;;;;;0.00;0.00;;;;;24.90;100024.00;;;;5088182;28;20553;-76
2022/01/23 09:35:21;;;;;;;0.00;0.00;;;;;24.90;100022.00;;;;5088476;28;20514;-75
2022/01/23 09:37:50;;;;;;;0.00;0.00;;;;;25.00;100018.00;;;;5088139;28;20048;-75
2022/01/23 09:40:20;;;;;;;0.00;0.00;;;;;25.10;100036.00;;;;5088747;28;20106;-76
2022/01/23 09:43:02;;;;;;;0.10;0.10;;;;;25.20;100030.00;;;;5087858;28;20048;-76
2022/01/23 09:45:32;;;;;;;0.00;0.00;;;;;25.50;100037.00;;;;5088137;28;20074;-76
2022/01/23 09:48:03;;;;;;;0.00;0.00;;;;;25.70;100041.00;;;;5088718;28;20621;-76
2022/01/23 09:50:35;;;;;;;0.00;0.00;;;;;25.90;100026.00;;;;5087866;28;20487;-76
2022/01/23 09:53:06;;;;;;;0.00;0.00;;;;;26.40;99989.00;;;;5088393;28;20052;-76
2022/01/23 09:55:36;;;;;;;0.00;0.00;;;;;27.50;99979.00;;;;5088146;28;20047;-76
2022/01/23 09:58:06;;;;;;;0.00;0.00;;;;;27.30;99975.00;;;;5087587;28;20132;-77
2022/01/23 10:00:35;;;;;;;0.00;0.00;;;;;29.70;99915.00;;;;5087903;28;20055;-77
2022/01/23 10:03:05;;;;;;;0.00;0.00;;;;;30.10;99964.00;;;;5088081;28;20051;-76
2022/01/23 10:05:35;;;;;;;0.00;0.00;;;;;29.90;99973.00;;;;5086749;28;20139;-77
2022/01/23 10:08:07;;;;;;;0.00;0.00;;;;;29.50;99994.00;;;;5086582;28;20043;-76
2022/01/23 10:10:39;;;;;;;0.00;0.00;;;;;28.70;100009.00;;;;5087677;28;20044;-77
2022/01/23 10:13:10;;;;;;;0.00;0.00;;;;;28.20;100025.00;;;;5087921;28;20044;-77
2022/01/23 10:15:40;;;;;;;0.00;0.00;;;;;28.10;100039.00;;;;5087436;28;20108;-74
2022/01/23 10:18:10;;;;;;;0.00;0.00;;;;;28.00;100047.00;;;;5087803;28;20407;-77
2022/01/23 10:20:40;;;;;;;0.00;0.00;;;;;28.00;100042.00;;;;5087632;28;20047;-77
2022/01/23 10:23:10;;;;;;;0.00;0.00;;;;;28.00;100051.00;;;;5087211;28;20743;-77
2022/01/23 10:25:42;;;;;;;0.00;0.00;;;;;28.10;100052.00;;;;5087583;28;20396;-77
2022/01/23 10:28:19;;;;;;;0.00;0.00;;;;;28.30;100054.00;;;;5086732;28;20093;-77
2022/01/23 10:30:55;;;;;;;0.00;0.00;;;;;28.50;100059.00;;;;5087880;28;20070;-76
2022/01/23 10:33:29;;;;;;;0.00;0.00;;;;;28.80;100044.00;;;;5087072;28;20131;-77
2022/01/23 10:36:11;;;;;;;0.00;0.00;;;;;32.50;99940.00;;;;5087314;28;20040;-77
2022/01/23 10:38:40;;;;;;;0.00;0.00;;;;;35.50;99912.00;;;;5087448;28;20054;-78
2022/01/23 10:50:04;;;;;;;0.03;0.03;;;;;39.50;99968.00;;;;5086628;28;20044;-76
2022/01/23 10:52:48;;;;;;;0.00;0.00;;;;;35.80;100040.00;;;;5086801;28;20548;-77
2022/01/23 10:55:44;;;;;;;0.00;0.00;;;;;37.10;100007.00;;;;5086777;28;20044;-76
2022/01/23 10:58:24;;;;;;;0.00;0.00;;;;;36.30;100031.00;;;;5086949;28;20531;-77
2022/01/23 11:01:06;;;;;;;0.00;0.00;;;;;37.10;100042.00;;;;5087615;28;20514;-77
2022/01/23 11:03:36;;;;;;;0.00;0.00;;;;;34.90;100107.00;;;;5087380;28;20032;-77
2022/01/23 11:06:13;;;;;;;0.00;0.00;;;;;33.80;100121.00;;;;5087072;28;20044;-76
2022/01/23 11:08:43;;;;;;;0.00;0.00;;;;;33.30;100124.00;;;;5086632;28;20411;-77
2022/01/23 11:11:13;;;;;;;0.00;0.00;;;;;32.80;100124.00;;;;5087255;28;20058;-76
2022/01/23 11:19:40;;;;;;;0.00;0.00;;;;;40.10;99961.00;;;;5085949;28;20117;-77
2022/01/23 11:22:18;;;;;;;0.00;0.00;;;;;41.30;99962.00;;;;5086867;28;20050;-77
2022/01/23 11:24:49;;;;;;;0.00;0.00;;;;;41.60;99963.00;;;;5086502;28;20055;-78
2022/01/23 11:27:21;;;;;;;0.00;0.00;;;;;41.80;99958.00;;;;5086394;28;20090;-77
2022/01/23 11:30:09;;;;;;;0.00;0.00;;;;;41.70;99954.00;;;;5087165;28;20040;-78
2022/01/23 11:32:41;;;;;;;0.13;0.13;;;;;41.50;99937.00;;;;5086730;28;20044;-78
2022/01/23 11:35:15;;;;;;;0.00;0.00;;;;;41.70;99936.00;;;;5086631;28;20127;-77
2022/01/23 11:37:52;;;;;;;0.00;0.00;;;;;41.40;99945.00;;;;5084780;28;20135;-77
2022/01/23 11:54:47;;;;;;;0.45;0.20;;;;;40.00;99937.00;;;;5086357;28;20441;-78
2022/01/23 11:57:35;;;;;;;0.00;0.00;;;;;40.10;99950.00;;;;5086741;28;20124;-79
2022/01/23 12:00:18;;;;;;;0.00;0.00;;;;;39.80;99951.00;;;;5086245;28;20040;-77
2022/01/23 12:03:05;;;;;;;0.00;0.00;;;;;38.80;99957.00;;;;5086047;28;20032;-75
2022/01/23 12:05:38;;;;;;;0.00;0.00;;;;;38.30;99971.00;;;;5087391;28;20044;-76
2022/01/23 12:08:32;;;;;;;0.00;0.00;;;;;38.50;100031.00;;;;5086020;28;20032;-75
2022/01/23 12:11:56;;;;;;;1.52;1.45;;;;;38.30;100037.00;;;;5086351;28;20048;-77
2022/01/23 12:17:12;;;;;;;0.00;0.00;;;;;38.30;100053.00;;;;5086192;28;20613;-77
2022/01/23 12:19:50;;;;;;;0.10;0.10;;;;;37.20;100094.00;;;;5085852;28;20050;-78
2022/01/23 12:22:37;;;;;;;0.52;0.52;;;;;36.60;100097.00;;;;5087010;28;20551;-77
2022/01/23 12:25:11;;;;;;;0.00;0.00;;;;;36.20;100082.00;;;;5086143;28;20079;-76
2022/01/23 12:27:42;;;;;;;0.10;0.10;;;;;36.30;100086.00;;;;5085354;28;20059;-76
2022/01/23 12:30:16;;;;;;;0.00;0.00;;;;;36.20;100090.00;;;;5085280;28;20040;-77
2022/01/23 12:33:12;;;;;;;0.00;0.00;;;;;36.10;100093.00;;;;5087453;28;20044;-77
2022/01/23 12:35:45;;;;;;;0.10;0.10;;;;;35.90;100096.00;;;;5089588;28;20044;-78
2022/01/23 12:38:16;;;;;;;0.00;0.00;;;;;36.00;100077.00;;;;5089211;28;20043;-77
2022/01/23 12:40:48;;;;;;;0.00;0.00;;;;;36.10;100077.00;;;;5089829;28;20417;-76
2022/01/23 12:43:27;;;;;;;0.00;0.00;;;;;36.10;100081.00;;;;5089434;28;20089;-79
2022/01/23 12:46:10;;;;;;;0.00;0.00;;;;;36.50;100065.00;;;;5089624;28;20039;-76
2022/01/23 12:48:43;;;;;;;0.00;0.00;;;;;36.70;100067.00;;;;5089965;28;20491;-77
2022/01/23 12:51:13;;;;;;;0.00;0.00;;;;;36.40;100068.00;;;;5089607;28;20531;-78
2022/01/23 12:53:48;;;;;;;0.00;0.00;;;;;37.50;100076.00;;;;5088955;28;20499;-75
2022/01/23 12:56:20;;;;;;;0.00;0.00;;;;;36.90;100094.00;;;;5088942;28;20040;-75
2022/01/23 12:58:58;;;;;;;0.00;0.00;;;;;36.60;100089.00;;;;5088856;28;20048;-76
2022/01/23 13:01:28;;;;;;;0.00;0.00;;;;;36.30;100093.00;;;;5088955;28;20126;-77
2022/01/23 13:03:59;;;;;;;;;;;;;35.90;100095.00;;;;5089742;28;20144;-77
2022/01/23 13:06:38;;;;;;;0.00;0.00;;;;;35.80;100094.00;;;;5089097;28;20010;-77
2022/01/23 13:09:23;;;;;;;0.00;0.00;;;;;35.90;100102.00;;;;5089230;28;20062;-78
2022/01/23 13:11:56;;;;;;;0.08;0.08;;;;;35.60;100098.00;;;;5088947;28;20071;-76
2022/01/23 13:14:58;;;;;;;0.00;0.00;;;;;35.80;100083.00;;;;5088859;28;20360;-80
2022/01/23 13:27:27;;;;;;;0.10;0.10;;;;;35.60;100096.00;;;;5088246;28;20054;-76
2022/01/23 13:35:09;;;;;;;0.00;0.00;;;;;35.30;100118.00;;;;5088601;28;20040;-76
2022/01/23 13:37:42;;;;;;;0.05;0.05;;;;;34.90;100116.00;;;;5088828;28;20044;-76
2022/01/23 13:40:14;;;;;;;0.00;0.00;;;;;34.50;100112.00;;;;5089080;28;20040;-75
2022/01/23 13:57:30;;;;;;;0.00;0.00;;;;;33.20;100146.00;;;;5088308;28;20123;-77
2022/01/23 14:00:01;;;;;;;0.00;0.00;;;;;32.50;100157.00;;;;5086677;28;20072;-77
2022/01/23 14:02:35;;;;;;;0.00;0.00;;;;;32.30;100148.00;;;;5086972;28;20141;-79
2022/01/23 14:05:13;;;;;;;0.00;0.00;;;;;32.00;100147.00;;;;5087258;28;20052;-78
2022/01/23 14:07:47;;;;;;;0.00;0.00;;;;;31.80;100150.00;;;;5095916;28;20114;-78
2022/01/23 14:10:19;;;;;;;0.00;0.00;;;;;31.70;100164.00;;;;5096075;28;20049;-77
2022/01/23 14:12:51;;;;;;;0.00;0.00;;;;;31.50;100159.00;;;;5094453;28;20491;-78
2022/01/23 14:15:24;;;;;;;0.00;0.00;;;;;31.40;100161.00;;;;5094218;28;20534;-77
2022/01/23 14:18:13;;;;;;;0.00;0.00;;;;;31.30;100164.00;;;;5097606;28;20065;-77
2022/01/23 14:20:53;;;;;;;0.00;0.00;;;;;31.30;100157.00;;;;5087028;28;20393;-77
2022/01/23 14:23:23;;;;;;;0.00;0.00;;;;;31.20;100164.00;;;;5086434;28;20039;-78
2022/01/23 14:25:59;;;;;;;0.00;0.00;;;;;31.10;100153.00;;;;5087035;28;20044;-78
2022/01/23 14:28:48;;;;;;;0.00;0.00;;;;;31.00;100156.00;;;;5087537;28;20110;-76
2022/01/23 14:31:21;;;;;;;0.00;0.00;;;;;30.90;100149.00;;;;5086835;28;20040;-78
2022/01/23 14:33:58;;;;;;;0.00;0.00;;;;;30.70;100150.00;;;;5096321;28;20044;-78
2022/01/23 14:36:33;;;;;;;0.03;0.03;;;;;30.70;100158.00;;;;5094798;28;20051;-77
2022/01/23 14:39:07;;;;;;;0.00;0.00;;;;;30.60;100141.00;;;;5093390;28;20517;-77
2022/01/23 14:41:42;;;;;;;0.00;0.00;;;;;30.60;100152.00;;;;5095262;28;20446;-77
2022/01/23 14:44:23;;;;;;;0.08;0.08;;;;;30.60;100131.00;;;;5095682;28;20036;-77
2022/01/23 14:46:56;;;;;;;0.00;0.00;;;;;30.50;100146.00;;;;5097769;28;20496;-79
2022/01/23 14:49:29;;;;;;;0.00;0.00;;;;;30.50;100136.00;;;;5086564;28;20399;-78
2022/01/23 14:52:01;;;;;;;0.00;0.00;;;;;30.50;100132.00;;;;5085358;28;20580;-77
2022/01/23 14:54:33;;;;;;;2.40;0.98;;;;;30.50;100132.00;;;;5087160;28;20693;-77
2022/01/23 14:57:05;;;;;;;0.00;0.00;;;;;30.50;100142.00;;;;5086286;28;20040;-78
2022/01/23 14:59:36;;;;;;;0.05;0.05;;;;;30.50;100140.00;;;;5086011;28;20554;-76
2022/01/23 15:02:07;;;;;;;0.00;0.00;;;;;30.60;100131.00;;;;5086321;28;20449;-78
2022/01/23 15:04:46;;;;;;;0.00;0.00;;;;;30.50;100139.00;;;;5086702;28;20040;-77
2022/01/23 15:07:18;;;;;;;0.00;0.00;;;;;30.60;100132.00;;;;5086973;28;20135;-77
2022/01/23 15:09:50;;;;;;;0.00;0.00;;;;;30.60;100135.00;;;;5086096;28;20079;-78
2022/01/23 15:12:20;;;;;;;0.00;0.00;;;;;30.70;100117.00;;;;5084875;28;20135;-77
2022/01/23 15:14:50;;;;;;;0.00;0.00;;;;;30.80;100113.00;;;;5086162;28;20047;-78
2022/01/23 15:17:20;;;;;;;0.60;0.55;;;;;31.10;100116.00;;;;5085394;28;20054;-78
2022/01/23 15:19:52;;;;;;;0.00;0.00;;;;;31.40;100119.00;;;;5082199;28;20505;-76
2022/01/23 15:22:27;;;;;;;0.00;0.00;;;;;31.60;100108.00;;;;5092635;28;20071;-78
2022/01/23 15:24:58;;;;;;;0.00;0.00;;;;;31.60;100104.00;;;;5093031;28;20044;-78
2022/01/23 15:27:27;;;;;;;0.00;0.00;;;;;31.70;100096.00;;;;5094255;28;20040;-77
2022/01/23 15:29:57;;;;;;;0.00;0.00;;;;;31.70;100096.00;;;;5095273;28;20051;-78
2022/01/23 15:32:26;;;;;;;0.00;0.00;;;;;31.90;100090.00;;;;5092838;28;20414;-77
2022/01/23 15:34:56;;;;;;;0.00;0.00;;;;;32.10;100093.00;;;;5086260;28;20040;-77
2022/01/23 15:37:30;;;;;;;0.00;0.00;;;;;32.40;100104.00;;;;5086248;28;20457;-77
2022/01/23 15:40:00;;;;;;;0.00;0.00;;;;;32.70;100101.00;;;;5084781;28;20507;-79
2022/01/23 15:42:30;;;;;;;0.00;0.00;;;;;32.80;100095.00;;;;5086266;28;20101;-76
2022/01/23 15:45:36;;;;;;;0.00;0.00;;;;;32.80;100099.00;;;;5164743;27;20467;-75
2022/01/23 15:48:09;;;;;;;0.00;0.00;;;;;32.80;100087.00;;;;5127477;27;20111;-76
2022/01/23 15:50:38;;;;;;;0.00;0.00;;;;;32.70;100091.00;;;;5145458;27;20047;-77
2022/01/23 15:53:08;;;;;;;0.00;0.00;;;;;32.80;100091.00;;;;5145049;27;20086;-77
2022/01/23 15:55:37;;;;;;;0.00;0.00;;;;;32.60;100080.00;;;;5145920;27;20047;-79
2022/01/23 15:58:07;;;;;;;0.00;0.00;;;;;32.50;100082.00;;;;5145668;27;20043;-78
2022/01/23 16:00:49;;;;;;;0.00;0.00;;;;;32.30;100088.00;;;;5123687;27;20062;-77
2022/01/23 16:03:19;;;;;;;0.00;0.00;;;;;32.50;100074.00;;;;5143973;27;20043;-79
2022/01/23 16:05:50;;;;;;;0.00;0.00;;;;;32.70;100063.00;;;;5144923;27;20035;-78
2022/01/23 16:08:24;;;;;;;0.00;0.00;;;;;32.80;100052.00;;;;5108930;27;20081;-77
2022/01/23 16:10:54;;;;;;;0.00;0.00;;;;;33.00;100051.00;;;;5144520;27;20117;-77
2022/01/23 16:13:23;;;;;;;0.00;0.00;;;;;33.60;100039.00;;;;5145342;27;20108;-77
2022/01/23 16:16:08;;;;;;;0.00;0.00;;;;;34.00;100016.00;;;;5143985;27;20064;-77
2022/01/23 16:18:42;;;;;;;0.00;0.00;;;;;34.00;100038.00;;;;5144366;27;20053;-79
2022/01/23 16:21:12;;;;;;;0.00;0.00;;;;;34.30;100033.00;;;;5144981;27;20057;-76
2022/01/23 16:24:30;;;;;;;0.00;0.00;;;;;34.30;100030.00;;;;5140446;27;20043;-77